createdAt,value
2023-03-04T00:00:26.096Z,1021.98
2023-03-04T00:02:26.043Z,1021.99
2023-03-04T00:04:26.039Z,1022.00
2023-03-04T00:06:25.954Z,1022.00
2023-03-04T00:08:26.027Z,1021.98
2023-03-04T00:10:25.988Z,1022.01
2023-03-04T00:12:25.965Z,1022.01
2023-03-04T00:14:26.680Z,1022.01
2023-03-04T00:16:26.065Z,1022.01
2023-03-04T00:18:26.087Z,1021.93
2023-03-04T00:20:26.125Z,1021.93
2023-03-04T00:22:26.033Z,1021.93
2023-03-04T00:26:26.176Z,1021.90
2023-03-04T00:28:26.047Z,1021.96
2023-03-04T00:30:26.077Z,1021.97
2023-03-04T00:32:26.082Z,1021.95
2023-03-04T00:34:26.028Z,1021.91
2023-03-04T00:36:26.127Z,1021.91
2023-03-04T00:38:26.041Z,1021.86
2023-03-04T00:42:26.058Z,1021.88
2023-03-04T00:44:26.136Z,1021.88
2023-03-04T00:46:39.182Z,1021.85
2023-03-04T00:48:39.167Z,1021.85
2023-03-04T00:50:39.220Z,1021.84
2023-03-04T00:52:39.285Z,1021.84
2023-03-04T00:54:39.159Z,1021.84
2023-03-04T00:56:39.185Z,1021.84
2023-03-04T00:58:39.166Z,1021.83
2023-03-04T01:00:42.010Z,1021.80
2023-03-04T01:02:39.209Z,1021.82
2023-03-04T01:04:39.237Z,1021.82
2023-03-04T01:06:39.271Z,1021.81
2023-03-04T01:08:39.181Z,1021.78
2023-03-04T01:10:39.178Z,1021.77
2023-03-04T01:12:39.160Z,1021.77
2023-03-04T01:14:39.171Z,1021.73
2023-03-04T01:16:39.258Z,1021.66
2023-03-04T01:18:39.252Z,1021.64
2023-03-04T01:20:39.187Z,1021.64
2023-03-04T01:22:39.169Z,1021.64
2023-03-04T01:24:39.174Z,1021.60
2023-03-04T01:26:39.181Z,1021.60
2023-03-04T01:28:39.170Z,1021.57
2023-03-04T01:30:39.203Z,1021.57
2023-03-04T01:32:39.217Z,1021.57
2023-03-04T01:34:39.256Z,1021.57
2023-03-04T01:36:39.290Z,1021.50
2023-03-04T01:38:39.189Z,1021.47
2023-03-04T01:40:39.220Z,1021.47
2023-03-04T01:42:39.202Z,1021.48
2023-03-04T01:44:39.219Z,1021.48
2023-03-04T01:46:39.163Z,1021.46
2023-03-04T01:48:39.235Z,1021.45
2023-03-04T01:50:39.201Z,1021.45
2023-03-04T01:52:39.184Z,1021.46
2023-03-04T01:54:39.196Z,1021.43
2023-03-04T01:56:39.212Z,1021.43
2023-03-04T01:58:39.248Z,1021.45
2023-03-04T02:00:39.203Z,1021.45
2023-03-04T02:02:39.198Z,1021.45
2023-03-04T02:04:39.262Z,1021.42
2023-03-04T02:06:39.317Z,1021.43
2023-03-04T02:08:39.223Z,1021.43
2023-03-04T02:10:39.225Z,1021.43
2023-03-04T02:12:39.211Z,1021.44
2023-03-04T02:14:39.216Z,1021.44
2023-03-04T02:16:39.200Z,1021.43
2023-03-04T02:18:39.210Z,1021.43
2023-03-04T02:20:39.203Z,1021.44
2023-03-04T02:22:39.373Z,1021.48
2023-03-04T02:25:09.216Z,1021.45
2023-03-04T02:27:09.218Z,1021.45
2023-03-04T02:29:09.227Z,1021.45
2023-03-04T02:31:09.269Z,1021.44
2023-03-04T02:33:09.224Z,1021.43
2023-03-04T02:35:09.318Z,1021.43
2023-03-04T02:37:09.315Z,1021.42
2023-03-04T02:39:09.211Z,1021.42
2023-03-04T02:41:09.212Z,1021.42
2023-03-04T02:43:09.220Z,1021.43
2023-03-04T02:45:09.229Z,1021.44
2023-03-04T02:47:09.230Z,1021.44
2023-03-04T02:49:09.231Z,1021.44
2023-03-04T02:51:09.228Z,1021.44
2023-03-04T02:53:09.220Z,1021.47
2023-03-04T02:55:09.269Z,1021.47
2023-03-04T02:57:09.222Z,1021.47
2023-03-04T02:59:09.371Z,1021.44
2023-03-04T03:01:09.313Z,1021.46
2023-03-04T03:03:09.474Z,1021.40
2023-03-04T03:05:09.344Z,1021.40
2023-03-04T03:07:09.216Z,1021.40
2023-03-04T03:09:09.239Z,1021.40
2023-03-04T03:11:09.235Z,1021.40
2023-03-04T03:13:09.306Z,1021.40
2023-03-04T03:15:09.376Z,1021.40
2023-03-04T03:17:09.272Z,1021.32
2023-03-04T03:19:09.331Z,1021.32
2023-03-04T03:21:09.276Z,1021.34
2023-03-04T03:23:09.521Z,1021.35
2023-03-04T03:25:09.249Z,1021.35
2023-03-04T03:27:09.281Z,1021.35
2023-03-04T03:29:09.369Z,1021.43
2023-03-04T03:31:09.298Z,1021.43
2023-03-04T03:33:09.249Z,1021.43
2023-03-04T03:35:09.253Z,1021.43
2023-03-04T03:37:09.250Z,1021.43
2023-03-04T03:39:09.254Z,1021.43
2023-03-04T03:41:09.243Z,1021.40
2023-03-04T03:43:09.248Z,1021.40
2023-03-04T03:45:09.219Z,1021.41
2023-03-04T03:47:09.256Z,1021.41
2023-03-04T03:49:09.232Z,1021.38
2023-03-04T03:51:09.247Z,1021.33
2023-03-04T03:53:09.272Z,1021.33
2023-03-04T03:55:09.239Z,1021.28
2023-03-04T03:57:09.261Z,1021.29
2023-03-04T03:59:09.240Z,1021.31
2023-03-04T04:01:09.283Z,1021.32
2023-03-04T04:03:09.331Z,1021.32
2023-03-04T04:05:09.236Z,1021.33
2023-03-04T04:07:09.266Z,1021.32
2023-03-04T04:09:09.277Z,1021.30
2023-03-04T04:11:09.287Z,1021.30
2023-03-04T04:13:39.406Z,1021.31
2023-03-04T04:15:39.524Z,1021.31
2023-03-04T04:17:39.255Z,1021.31
2023-03-04T04:19:39.256Z,1021.38
2023-03-04T04:21:39.447Z,1021.38
2023-03-04T04:23:39.272Z,1021.31
2023-03-04T04:25:39.286Z,1021.31
2023-03-04T04:27:39.293Z,1021.30
2023-03-04T04:29:39.264Z,1021.32
2023-03-04T04:31:39.256Z,1021.31
2023-03-04T04:33:40.289Z,1021.31
2023-03-04T04:35:39.304Z,1021.31
2023-03-04T04:37:39.272Z,1021.31
2023-03-04T04:39:39.285Z,1021.31
2023-03-04T04:41:39.384Z,1021.32
2023-03-04T04:43:39.252Z,1021.32
2023-03-04T04:45:39.352Z,1021.32
2023-03-04T04:47:39.258Z,1021.29
2023-03-04T04:49:39.287Z,1021.34
2023-03-04T04:51:39.264Z,1021.34
2023-03-04T04:53:39.381Z,1021.34
2023-03-04T04:55:39.474Z,1021.34
2023-03-04T04:57:39.262Z,1021.34
2023-03-04T04:59:39.272Z,1021.35
2023-03-04T05:01:39.302Z,1021.34
2023-03-04T05:03:39.334Z,1021.34
2023-03-04T05:05:39.286Z,1021.34
2023-03-04T05:07:39.269Z,1021.30
2023-03-04T05:09:39.288Z,1021.38
2023-03-04T05:11:39.407Z,1021.38
2023-03-04T05:13:39.279Z,1021.37
2023-03-04T05:15:39.734Z,1021.37
2023-03-04T05:17:39.450Z,1021.37
2023-03-04T05:19:39.303Z,1021.37
2023-03-04T05:21:39.287Z,1021.37
2023-03-04T05:23:39.283Z,1021.45
2023-03-04T05:25:39.400Z,1021.43
2023-03-04T05:27:39.308Z,1021.43
2023-03-04T05:29:40.380Z,1021.37
2023-03-04T05:31:39.313Z,1021.37
2023-03-04T05:33:39.293Z,1021.37
2023-03-04T05:35:39.354Z,1021.37
2023-03-04T05:37:39.395Z,1021.37
2023-03-04T05:39:39.307Z,1021.37
2023-03-04T05:41:39.430Z,1021.37
2023-03-04T05:43:39.293Z,1021.55
2023-03-04T05:45:39.290Z,1021.52
2023-03-04T05:47:39.302Z,1021.51
2023-03-04T05:49:39.389Z,1021.51
2023-03-04T05:51:39.312Z,1021.59
2023-03-04T05:53:39.344Z,1021.57
2023-03-04T05:55:39.294Z,1021.57
2023-03-04T05:57:39.324Z,1021.51
2023-03-04T06:00:09.463Z,1021.51
2023-03-04T06:02:09.366Z,1021.51
2023-03-04T06:04:09.357Z,1021.51
2023-03-04T06:06:09.428Z,1021.59
2023-03-04T06:08:09.372Z,1021.59
2023-03-04T06:10:09.314Z,1021.59
2023-03-04T06:12:09.409Z,1021.59
2023-03-04T06:14:09.377Z,1021.65
2023-03-04T06:16:09.359Z,1021.65
2023-03-04T06:18:09.338Z,1021.65
2023-03-04T06:20:09.430Z,1021.65
2023-03-04T06:22:09.303Z,1021.65
2023-03-04T06:24:09.316Z,1021.73
2023-03-04T06:26:09.318Z,1021.81
2023-03-04T06:28:09.396Z,1021.81
2023-03-04T06:30:09.472Z,1021.81
2023-03-04T06:32:09.469Z,1021.84
2023-03-04T06:34:09.310Z,1021.85
2023-03-04T06:36:09.343Z,1021.85
2023-03-04T06:38:09.342Z,1021.85
2023-03-04T06:40:09.345Z,1021.93
2023-03-04T06:42:09.389Z,1021.98
2023-03-04T06:44:09.318Z,1022.00
2023-03-04T06:46:09.337Z,1022.00
2023-03-04T06:48:09.333Z,1021.98
2023-03-04T06:50:09.436Z,1021.97
2023-03-04T06:52:09.341Z,1022.02
2023-03-04T06:54:09.810Z,1021.99
2023-03-04T06:56:09.320Z,1021.99
2023-03-04T06:58:09.375Z,1022.05
2023-03-04T07:00:09.324Z,1022.05
2023-03-04T07:02:09.331Z,1022.11
2023-03-04T07:04:09.459Z,1022.14
2023-03-04T07:06:09.351Z,1022.14
2023-03-04T07:08:09.339Z,1022.14
2023-03-04T07:10:09.401Z,1022.14
2023-03-04T07:12:09.430Z,1022.27
2023-03-04T07:14:09.508Z,1022.27
2023-03-04T07:16:09.518Z,1022.26
2023-03-04T07:18:09.446Z,1022.26
2023-03-04T07:20:09.448Z,1022.31
2023-03-04T07:22:09.339Z,1022.31
2023-03-04T07:24:09.546Z,1022.31
2023-03-04T07:26:09.455Z,1022.33
2023-03-04T07:28:09.410Z,1022.33
2023-03-04T07:30:09.498Z,1022.33
2023-03-04T07:32:09.681Z,1022.40
2023-03-04T07:34:09.415Z,1022.40
2023-03-04T07:36:09.483Z,1022.43
2023-03-04T07:38:09.445Z,1022.47
2023-03-04T07:40:09.428Z,1022.47
2023-03-04T07:42:09.501Z,1022.47
2023-03-04T07:44:11.555Z,1022.54
2023-03-04T07:46:32.185Z,1022.50
2023-03-04T07:48:32.215Z,1022.55
2023-03-04T07:50:32.207Z,1022.54
2023-03-04T07:52:32.219Z,1022.54
2023-03-04T07:54:32.244Z,1022.54
2023-03-04T07:56:32.162Z,1022.54
2023-03-04T07:58:32.156Z,1022.54
2023-03-04T08:00:32.212Z,1022.54
2023-03-04T08:02:32.225Z,1022.59
2023-03-04T08:04:32.307Z,1022.56
2023-03-04T08:06:32.226Z,1022.56
2023-03-04T08:08:32.246Z,1022.56
2023-03-04T08:10:32.150Z,1022.62
2023-03-04T08:12:32.143Z,1022.70
2023-03-04T08:14:32.172Z,1022.70
2023-03-04T08:16:32.214Z,1022.64
2023-03-04T08:18:32.209Z,1022.64
2023-03-04T08:20:32.220Z,1022.64
2023-03-04T08:22:32.155Z,1022.66
2023-03-04T08:24:32.241Z,1022.66
2023-03-04T08:26:32.232Z,1022.64
2023-03-04T08:28:32.187Z,1022.64
2023-03-04T08:30:32.192Z,1022.64
2023-03-04T08:32:32.301Z,1022.64
2023-03-04T08:34:32.297Z,1022.64
2023-03-04T08:36:32.318Z,1022.74
2023-03-04T08:38:32.246Z,1022.74
2023-03-04T08:40:32.325Z,1022.74
2023-03-04T08:42:32.444Z,1022.74
2023-03-04T08:44:32.144Z,1022.79
2023-03-04T08:46:32.183Z,1022.81
2023-03-04T08:48:32.146Z,1022.84
2023-03-04T08:50:32.151Z,1022.88
2023-03-04T08:52:32.249Z,1022.88
2023-03-04T08:54:32.273Z,1022.88
2023-03-04T08:56:32.165Z,1022.88
2023-03-04T08:58:32.206Z,1022.91
2023-03-04T09:00:32.146Z,1022.91
2023-03-04T09:02:32.237Z,1022.91
2023-03-04T09:04:32.248Z,1022.91
2023-03-04T09:06:32.153Z,1022.89
2023-03-04T09:08:32.141Z,1022.95
2023-03-04T09:11:02.312Z,1022.95
2023-03-04T09:13:02.221Z,1022.95
2023-03-04T09:15:11.259Z,1022.91
2023-03-04T09:17:02.228Z,1022.90
2023-03-04T09:19:02.291Z,1022.90
2023-03-04T09:21:02.246Z,1022.90
2023-03-04T09:23:02.240Z,1022.90
2023-03-04T09:25:02.286Z,1022.87
2023-03-04T09:27:02.188Z,1022.87
2023-03-04T09:29:02.189Z,1022.86
2023-03-04T09:31:02.295Z,1022.86
2023-03-04T09:33:02.233Z,1022.86
2023-03-04T09:35:02.177Z,1022.90
2023-03-04T09:37:02.268Z,1022.89
2023-03-04T09:39:02.185Z,1022.89
2023-03-04T09:41:02.300Z,1022.89
2023-03-04T09:43:02.210Z,1022.89
2023-03-04T09:45:02.192Z,1022.93
2023-03-04T09:47:02.263Z,1022.93
2023-03-04T09:49:02.283Z,1022.93
2023-03-04T09:51:02.278Z,1022.86
2023-03-04T09:53:02.284Z,1022.84
2023-03-04T09:55:04.685Z,1022.84
2023-03-04T09:57:02.205Z,1022.97
2023-03-04T09:59:02.229Z,1022.97
2023-03-04T10:01:04.786Z,1022.92
2023-03-04T10:03:02.255Z,1022.97
2023-03-04T10:05:02.358Z,1022.90
2023-03-04T10:07:02.298Z,1022.93
2023-03-04T10:09:02.316Z,1022.93
2023-03-04T10:11:02.244Z,1022.87
2023-03-04T10:13:02.200Z,1022.84
2023-03-04T10:15:02.272Z,1022.85
2023-03-04T10:17:02.256Z,1022.85
2023-03-04T10:19:02.263Z,1022.84
2023-03-04T10:21:02.279Z,1022.89
2023-03-04T10:23:02.301Z,1022.89
2023-03-04T10:25:02.233Z,1022.82
2023-03-04T10:27:02.243Z,1022.82
2023-03-04T10:29:02.213Z,1022.82
2023-03-04T10:31:02.257Z,1022.82
2023-03-04T10:33:02.269Z,1022.78
2023-03-04T10:35:02.321Z,1022.90
2023-03-04T10:37:02.328Z,1022.90
2023-03-04T10:39:02.300Z,1022.90
2023-03-04T10:41:02.235Z,1022.86
2023-03-04T10:43:02.208Z,1022.84
2023-03-04T10:45:02.179Z,1022.84
2023-03-04T10:47:02.266Z,1022.80
2023-03-04T10:49:02.266Z,1022.84
2023-03-04T10:51:02.313Z,1022.84
2023-03-04T10:53:02.367Z,1022.77
2023-03-04T10:55:02.386Z,1022.77
2023-03-04T10:57:02.231Z,1022.72
2023-03-04T10:59:32.260Z,1022.69
2023-03-04T11:01:32.277Z,1022.71
2023-03-04T11:03:32.290Z,1022.71
2023-03-04T11:05:32.193Z,1022.67
2023-03-04T11:07:38.080Z,1022.64
2023-03-04T11:09:32.389Z,1022.64
2023-03-04T11:11:32.425Z,1022.60
2023-03-04T11:13:32.206Z,1022.58
2023-03-04T11:15:32.250Z,1022.61
2023-03-04T11:17:32.272Z,1022.61
2023-03-04T11:19:32.276Z,1022.59
2023-03-04T11:21:32.188Z,1022.53
2023-03-04T11:23:32.211Z,1022.57
2023-03-04T11:25:32.191Z,1022.60
2023-03-04T11:27:32.242Z,1022.60
2023-03-04T11:29:32.185Z,1022.56
2023-03-04T11:31:32.218Z,1022.53
2023-03-04T11:33:32.282Z,1022.53
2023-03-04T11:35:32.210Z,1022.55
2023-03-04T11:37:32.202Z,1022.55
2023-03-04T11:39:32.202Z,1022.47
2023-03-04T11:41:32.252Z,1022.47
2023-03-04T11:43:32.283Z,1022.47
2023-03-04T11:45:33.846Z,1022.47
2023-03-04T11:47:32.248Z,1022.49
2023-03-04T11:49:32.233Z,1022.53
2023-03-04T11:51:32.327Z,1022.43
2023-03-04T11:53:32.363Z,1022.41
2023-03-04T11:55:32.247Z,1022.41
2023-03-04T11:57:32.297Z,1022.29
2023-03-04T11:59:32.329Z,1022.29
2023-03-04T12:01:32.332Z,1022.28
2023-03-04T12:03:32.303Z,1022.25
2023-03-04T12:05:32.344Z,1022.25
2023-03-04T12:07:32.349Z,1022.20
2023-03-04T12:09:32.327Z,1022.15
2023-03-04T12:11:32.282Z,1022.15
2023-03-04T12:13:32.378Z,1022.16
2023-03-04T12:15:32.433Z,1022.16
2023-03-04T12:17:32.266Z,1022.13
2023-03-04T12:19:34.085Z,1022.06
2023-03-04T12:21:32.372Z,1022.06
2023-03-04T12:23:32.369Z,1022.06
2023-03-04T12:25:32.335Z,1022.06
2023-03-04T12:27:32.351Z,1022.06
2023-03-04T12:29:32.314Z,1022.06
2023-03-04T12:31:32.377Z,1022.06
2023-03-04T12:33:32.358Z,1022.06
2023-03-04T12:35:32.528Z,1022.06
2023-03-04T12:37:35.140Z,1022.06
2023-03-04T12:39:32.480Z,1021.72
2023-03-04T12:41:32.282Z,1021.72
2023-03-04T12:43:34.394Z,1021.72
2023-03-04T12:45:32.302Z,1021.72
2023-03-04T12:48:02.511Z,1021.58
2023-03-04T12:50:02.273Z,1021.58
2023-03-04T12:52:02.267Z,1021.58
2023-03-04T12:54:02.363Z,1021.54
2023-03-04T12:56:02.422Z,1021.54
2023-03-04T12:58:02.276Z,1021.55
2023-03-04T13:00:02.290Z,1021.56
2023-03-04T13:02:04.388Z,1021.56
2023-03-04T13:04:02.390Z,1021.55
2023-03-04T13:06:02.358Z,1021.55
2023-03-04T13:08:02.367Z,1021.44
2023-03-04T13:10:02.423Z,1021.45
2023-03-04T13:12:02.622Z,1021.45
2023-03-04T13:14:02.303Z,1021.46
2023-03-04T13:16:02.429Z,1021.46
2023-03-04T13:18:02.370Z,1021.43
2023-03-04T13:20:02.456Z,1021.43
2023-03-04T13:22:02.262Z,1021.45
2023-03-04T13:24:02.680Z,1021.44
2023-03-04T13:26:02.528Z,1021.44
2023-03-04T13:28:02.376Z,1021.44
2023-03-04T13:30:03.353Z,1021.44
2023-03-04T13:32:02.565Z,1021.44
2023-03-04T13:34:02.364Z,1021.39
2023-03-04T13:36:02.482Z,1021.38
2023-03-04T13:38:04.626Z,1021.41
2023-03-04T13:40:02.308Z,1021.41
2023-03-04T13:42:02.419Z,1021.39
2023-03-04T13:44:02.428Z,1021.39
2023-03-04T13:46:02.353Z,1021.39
2023-03-04T13:48:02.385Z,1021.39
2023-03-04T13:50:02.398Z,1021.45
2023-03-04T13:52:04.365Z,1021.46
2023-03-04T13:54:02.422Z,1021.33
2023-03-04T13:56:02.301Z,1021.34
2023-03-04T13:58:03.435Z,1021.34
2023-03-04T14:00:02.484Z,1021.37
2023-03-04T14:02:02.399Z,1021.41
2023-03-04T14:04:02.609Z,1021.42
2023-03-04T14:06:02.527Z,1021.40
2023-03-04T14:08:02.541Z,1021.40
2023-03-04T14:10:02.373Z,1021.42
2023-03-04T14:12:02.339Z,1021.44
2023-03-04T14:14:02.398Z,1021.42
2023-03-04T14:16:02.463Z,1021.37
2023-03-04T14:18:02.508Z,1021.37
2023-03-04T14:20:02.386Z,1021.32
2023-03-04T14:22:02.491Z,1021.29
2023-03-04T14:24:02.754Z,1021.32
2023-03-04T14:26:02.401Z,1021.32
2023-03-04T14:28:02.544Z,1021.32
2023-03-04T14:30:02.368Z,1021.22
2023-03-04T14:32:02.583Z,1021.26
2023-03-04T14:34:02.612Z,1021.23
2023-03-04T14:36:02.468Z,1021.23
2023-03-04T14:38:32.398Z,1021.30
2023-03-04T14:40:32.573Z,1021.30
2023-03-04T14:42:32.437Z,1021.29
2023-03-04T14:46:32.398Z,1021.23
2023-03-04T14:50:11.031Z,1021.21
2023-03-04T14:52:11.076Z,1021.17
2023-03-04T14:54:11.066Z,1021.17
2023-03-04T14:56:11.144Z,1021.18
2023-03-04T14:58:11.091Z,1021.16
2023-03-04T15:00:11.014Z,1021.15
2023-03-04T15:02:10.955Z,1021.12
2023-03-04T15:04:11.132Z,1021.12
2023-03-04T15:06:11.055Z,1021.02
2023-03-04T15:08:41.065Z,1021.02
2023-03-04T15:10:41.087Z,1021.04
2023-03-04T15:12:41.076Z,1021.04
2023-03-04T15:14:41.008Z,1021.03
2023-03-04T15:16:41.091Z,1021.03
2023-03-04T15:18:41.033Z,1021.03
2023-03-04T15:20:41.066Z,1020.99
2023-03-04T15:22:41.083Z,1021.03
2023-03-04T15:24:41.063Z,1021.01
2023-03-04T15:26:41.079Z,1021.01
2023-03-04T15:28:41.091Z,1020.97
2023-03-04T15:30:41.040Z,1020.97
2023-03-04T15:32:40.991Z,1020.97
2023-03-04T15:34:41.042Z,1020.97
2023-03-04T15:36:40.978Z,1020.97
2023-03-04T15:38:41.082Z,1020.97
2023-03-04T15:40:41.269Z,1020.97
2023-03-04T15:42:40.998Z,1020.89
2023-03-04T15:44:41.134Z,1020.90
2023-03-04T15:46:41.128Z,1020.90
2023-03-04T15:48:41.001Z,1020.90
2023-03-04T15:50:41.097Z,1020.94
2023-03-04T15:52:41.050Z,1020.92
2023-03-04T15:54:41.092Z,1020.92
2023-03-04T15:56:40.996Z,1020.92
2023-03-04T15:58:40.998Z,1020.93
2023-03-04T16:00:41.138Z,1020.93
2023-03-04T16:02:41.045Z,1020.93
2023-03-04T16:04:41.073Z,1020.93
2023-03-04T16:06:41.049Z,1020.93
2023-03-04T16:08:41.100Z,1020.91
2023-03-04T16:10:41.132Z,1020.91
2023-03-04T16:12:41.116Z,1020.92
2023-03-04T16:14:41.148Z,1020.92
2023-03-04T16:16:41.029Z,1020.93
2023-03-04T16:18:41.006Z,1020.94
2023-03-04T16:20:41.088Z,1020.91
2023-03-04T16:22:41.085Z,1020.91
2023-03-04T16:24:41.093Z,1020.94
2023-03-04T16:26:41.113Z,1020.94
2023-03-04T16:28:41.017Z,1020.94
2023-03-04T16:30:41.019Z,1020.97
2023-03-04T16:32:41.129Z,1020.97
2023-03-04T16:34:41.145Z,1020.98
2023-03-04T16:36:41.148Z,1020.97
2023-03-04T16:38:41.004Z,1020.97
2023-03-04T16:40:41.097Z,1020.99
2023-03-04T16:42:41.020Z,1020.99
2023-03-04T16:44:41.042Z,1021.07
2023-03-04T16:46:41.081Z,1021.09
2023-03-04T16:48:41.060Z,1021.06
2023-03-04T16:50:41.083Z,1021.06
2023-03-04T16:52:41.092Z,1021.05
2023-03-04T16:54:41.114Z,1021.07
2023-03-04T16:56:41.108Z,1021.08
2023-03-04T16:59:11.136Z,1021.15
2023-03-04T17:01:11.094Z,1021.15
2023-03-04T17:03:11.082Z,1021.19
2023-03-04T17:05:11.108Z,1021.16
2023-03-04T17:07:11.099Z,1021.18
2023-03-04T17:09:11.139Z,1021.18
2023-03-04T17:11:11.139Z,1021.18
2023-03-04T17:13:11.151Z,1021.22
2023-03-04T17:15:11.104Z,1021.23
2023-03-04T17:17:11.075Z,1021.19
2023-03-04T17:19:12.057Z,1021.21
2023-03-04T17:21:11.144Z,1021.21
2023-03-04T17:23:11.108Z,1021.22
2023-03-04T17:25:11.179Z,1021.22
2023-03-04T17:27:11.065Z,1021.19
2023-03-04T17:29:11.168Z,1021.19
2023-03-04T17:31:11.122Z,1021.16
2023-03-04T17:33:11.076Z,1021.12
2023-03-04T17:35:11.111Z,1021.13
2023-03-04T17:37:11.148Z,1021.11
2023-03-04T17:39:11.167Z,1021.11
2023-03-04T17:41:11.571Z,1021.16
2023-03-04T17:43:11.191Z,1021.13
2023-03-04T17:45:11.220Z,1021.13
2023-03-04T17:47:11.097Z,1021.14
2023-03-04T17:49:11.056Z,1021.14
2023-03-04T17:51:11.132Z,1021.14
2023-03-04T17:53:11.148Z,1021.16
2023-03-04T17:55:11.137Z,1021.16
2023-03-04T17:57:11.076Z,1021.16
2023-03-04T17:59:11.169Z,1021.17
2023-03-04T18:01:11.114Z,1021.14
2023-03-04T18:03:11.097Z,1021.17
2023-03-04T18:05:11.108Z,1021.17
2023-03-04T18:07:11.160Z,1021.17
2023-03-04T18:09:11.126Z,1021.13
2023-03-04T18:11:11.161Z,1021.12
2023-03-04T18:13:11.072Z,1021.06
2023-03-04T18:15:12.129Z,1021.03
2023-03-04T18:17:11.110Z,1021.03
2023-03-04T18:19:11.103Z,1021.05
2023-03-04T18:21:11.120Z,1020.98
2023-03-04T18:23:11.188Z,1020.92
2023-03-04T18:25:11.164Z,1020.92
2023-03-04T18:27:11.191Z,1020.89
2023-03-04T18:29:11.121Z,1020.88
2023-03-04T18:31:11.199Z,1020.88
2023-03-04T18:33:11.188Z,1020.84
2023-03-04T18:35:11.139Z,1020.84
2023-03-04T18:37:11.157Z,1020.85
2023-03-04T18:39:11.160Z,1020.84
2023-03-04T18:41:11.163Z,1020.85
2023-03-04T18:43:11.085Z,1020.86
2023-03-04T18:47:42.135Z,1020.92
2023-03-04T18:49:41.080Z,1020.92
2023-03-04T18:51:41.149Z,1020.92
2023-03-04T18:53:41.233Z,1020.87
2023-03-04T18:55:41.219Z,1020.87
2023-03-04T18:57:41.206Z,1020.87
2023-03-04T18:59:41.120Z,1020.85
2023-03-04T19:01:42.125Z,1020.85
2023-03-04T19:03:43.152Z,1020.85
2023-03-04T19:05:41.188Z,1020.87
2023-03-04T19:07:42.205Z,1020.87
2023-03-04T19:09:41.238Z,1020.87
2023-03-04T19:11:42.149Z,1020.87
2023-03-04T19:13:41.144Z,1020.87
2023-03-04T19:15:41.114Z,1020.90
2023-03-04T19:17:41.140Z,1020.90
2023-03-04T19:19:41.165Z,1020.85
2023-03-04T19:21:41.153Z,1020.87
2023-03-04T19:23:41.169Z,1020.87
2023-03-04T19:25:41.131Z,1020.87
2023-03-04T19:27:41.231Z,1020.88
2023-03-04T19:29:41.163Z,1020.86
2023-03-04T19:31:41.547Z,1020.88
2023-03-04T19:33:42.138Z,1020.89
2023-03-04T19:35:41.225Z,1020.89
2023-03-04T19:37:41.071Z,1020.87
2023-03-04T19:39:41.199Z,1020.87
2023-03-04T19:41:41.153Z,1020.83
2023-03-04T19:43:41.223Z,1020.80
2023-03-04T19:45:41.235Z,1020.80
2023-03-04T19:47:41.089Z,1020.81
2023-03-04T19:49:41.146Z,1020.79
2023-03-04T19:51:41.220Z,1020.79
2023-03-04T19:53:41.108Z,1020.79
2023-03-04T19:55:41.116Z,1020.76
2023-03-04T19:57:41.212Z,1020.76
2023-03-04T19:59:41.133Z,1020.76
2023-03-04T20:01:41.189Z,1020.68
2023-03-04T20:03:41.178Z,1020.68
2023-03-04T20:05:41.197Z,1020.67
2023-03-04T20:07:41.214Z,1020.67
2023-03-04T20:09:41.222Z,1020.64
2023-03-04T20:11:56.233Z,1020.66
2023-03-04T20:13:41.149Z,1020.66
2023-03-04T20:15:41.175Z,1020.68
2023-03-04T20:17:41.190Z,1020.69
2023-03-04T20:19:41.156Z,1020.69
2023-03-04T20:21:41.104Z,1020.69
2023-03-04T20:23:42.131Z,1020.75
2023-03-04T20:25:41.209Z,1020.74
2023-03-04T20:27:41.147Z,1020.82
2023-03-04T20:29:41.120Z,1020.80
2023-03-04T20:31:41.260Z,1020.80
2023-03-04T20:34:11.162Z,1020.80
2023-03-04T20:36:11.188Z,1020.84
2023-03-04T20:38:11.219Z,1020.84
2023-03-04T20:40:11.230Z,1020.84
2023-03-04T20:42:11.131Z,1020.84
2023-03-04T20:44:11.139Z,1020.82
2023-03-04T20:46:11.196Z,1020.77
2023-03-04T20:48:11.194Z,1020.75
2023-03-04T20:50:11.239Z,1020.75
2023-03-04T20:52:11.356Z,1020.75
2023-03-04T20:54:11.322Z,1020.77
2023-03-04T20:56:11.317Z,1020.71
2023-03-04T20:58:11.398Z,1020.70
2023-03-04T21:00:11.176Z,1020.70
2023-03-04T21:02:11.154Z,1020.64
2023-03-04T21:04:11.288Z,1020.65
2023-03-04T21:06:11.193Z,1020.65
2023-03-04T21:08:11.214Z,1020.63
2023-03-04T21:10:11.236Z,1020.63
2023-03-04T21:12:11.259Z,1020.63
2023-03-04T21:14:11.162Z,1020.63
2023-03-04T21:16:11.270Z,1020.63
2023-03-04T21:18:11.214Z,1020.44
2023-03-04T21:20:11.292Z,1020.44
2023-03-04T21:22:11.267Z,1020.44
2023-03-04T21:24:11.608Z,1020.47
2023-03-04T21:26:11.341Z,1020.43
2023-03-04T21:28:11.452Z,1020.43
2023-03-04T21:30:11.293Z,1020.46
2023-03-04T21:32:23.225Z,1020.45
2023-03-04T21:34:11.421Z,1020.44
2023-03-04T21:36:11.452Z,1020.38
2023-03-04T21:38:11.261Z,1020.38
2023-03-04T21:40:15.279Z,1020.41
2023-03-04T21:42:11.305Z,1020.40
2023-03-04T21:44:18.137Z,1020.40
2023-03-04T21:46:11.243Z,1020.39
2023-03-04T21:48:11.234Z,1020.39
2023-03-04T21:50:11.315Z,1020.45
2023-03-04T21:52:11.363Z,1020.42
2023-03-04T21:54:11.361Z,1020.42
2023-03-04T21:58:19.717Z,1020.35
2023-03-04T22:00:19.769Z,1020.35
2023-03-04T22:02:19.823Z,1020.35
2023-03-04T22:04:19.749Z,1020.35
2023-03-04T22:06:19.781Z,1020.35
2023-03-04T22:08:19.785Z,1020.32
2023-03-04T22:10:19.885Z,1020.32
2023-03-04T22:12:19.894Z,1020.32
2023-03-04T22:14:20.745Z,1020.30
2023-03-04T22:16:19.814Z,1020.20
2023-03-04T22:18:19.750Z,1020.18
2023-03-04T22:20:19.803Z,1020.18
2023-03-04T22:22:19.801Z,1020.12
2023-03-04T22:24:20.811Z,1020.12
2023-03-04T22:26:19.711Z,1020.08
2023-03-04T22:28:19.852Z,1020.08
2023-03-04T22:30:19.738Z,1020.08
2023-03-04T22:32:19.853Z,1020.08
2023-03-04T22:34:19.915Z,1020.08
2023-03-04T22:36:19.811Z,1020.17
2023-03-04T22:38:19.833Z,1020.17
2023-03-04T22:40:19.833Z,1020.09
2023-03-04T22:42:20.424Z,1020.09
2023-03-04T22:44:19.862Z,1020.09
2023-03-04T22:46:19.785Z,1020.09
2023-03-04T22:48:19.791Z,1020.09
2023-03-04T22:50:19.799Z,1020.01
2023-03-04T22:52:19.883Z,1020.01
2023-03-04T22:54:19.958Z,1019.99
2023-03-04T22:56:49.801Z,1019.99
2023-03-04T22:58:49.842Z,1019.97
2023-03-04T23:00:49.758Z,1019.98
2023-03-04T23:02:49.816Z,1020.04
2023-03-04T23:04:49.935Z,1019.98
2023-03-04T23:06:49.804Z,1019.98
2023-03-04T23:08:49.827Z,1019.98
2023-03-04T23:10:49.837Z,1020.00
2023-03-04T23:12:49.761Z,1020.03
2023-03-04T23:14:49.876Z,1020.03
2023-03-04T23:16:49.810Z,1020.03
2023-03-04T23:18:49.823Z,1019.97
2023-03-04T23:20:49.873Z,1019.95
2023-03-04T23:22:49.850Z,1019.89
2023-03-04T23:24:49.866Z,1019.89
2023-03-04T23:26:49.870Z,1019.89
2023-03-04T23:28:49.776Z,1019.85
2023-03-04T23:30:49.820Z,1019.86
2023-03-04T23:32:49.780Z,1019.79
2023-03-04T23:34:49.749Z,1019.79
2023-03-04T23:36:49.942Z,1019.82
2023-03-04T23:38:49.794Z,1019.78
2023-03-04T23:40:49.856Z,1019.78
2023-03-04T23:42:49.794Z,1019.78
2023-03-04T23:44:49.756Z,1019.78
2023-03-04T23:46:49.775Z,1019.74
2023-03-04T23:48:49.763Z,1019.78
2023-03-04T23:50:49.755Z,1019.74
2023-03-04T23:52:49.771Z,1019.74
2023-03-04T23:54:49.864Z,1019.74
2023-03-04T23:56:49.731Z,1019.74
2023-03-04T23:58:49.764Z,1019.71
